createdAt,value
2018-12-10T00:00:57.463Z,1.73
2018-12-10T00:03:30.381Z,1.17
2018-12-10T00:05:57.789Z,1.37
2018-12-10T00:08:25.196Z,1.43
2018-12-10T00:10:52.583Z,1.60
2018-12-10T00:13:19.987Z,0.90
2018-12-10T00:15:47.508Z,0.97
2018-12-10T00:18:14.954Z,0.93
2018-12-10T00:20:42.371Z,0.90
2018-12-10T00:23:09.822Z,1.23
2018-12-10T00:25:37.219Z,1.33
2018-12-10T00:28:04.640Z,1.00
2018-12-10T00:30:32.332Z,0.90
2018-12-10T00:32:59.751Z,1.27
2018-12-10T00:35:27.127Z,1.00
2018-12-10T00:37:54.540Z,1.03
2018-12-10T00:40:21.951Z,1.40
2018-12-10T00:42:49.367Z,1.00
2018-12-10T00:45:16.780Z,1.17
2018-12-10T00:47:44.280Z,1.03
2018-12-10T00:50:11.721Z,1.60
2018-12-10T00:52:39.141Z,1.23
2018-12-10T00:55:06.562Z,1.27
2018-12-10T00:57:33.946Z,1.70
2018-12-10T01:00:01.379Z,1.20
2018-12-10T01:02:28.789Z,1.30
2018-12-10T01:04:56.201Z,1.30
2018-12-10T01:07:23.887Z,1.07
2018-12-10T01:09:51.390Z,1.43
2018-12-10T01:12:18.786Z,1.57
2018-12-10T01:14:46.182Z,1.20
2018-12-10T01:17:13.578Z,1.60
2018-12-10T01:19:40.995Z,1.93
2018-12-10T01:22:08.434Z,1.20
2018-12-10T01:24:35.855Z,1.33
2018-12-10T01:27:03.261Z,1.30
2018-12-10T01:29:30.662Z,1.33
2018-12-10T01:31:58.063Z,1.83
2018-12-10T01:34:25.451Z,1.67
2018-12-10T01:36:52.867Z,1.77
2018-12-10T01:39:20.257Z,1.80
2018-12-10T01:41:47.646Z,1.87
2018-12-10T01:44:15.090Z,2.07
2018-12-10T01:46:42.623Z,2.00
2018-12-10T01:49:10.010Z,2.40
2018-12-10T01:51:37.523Z,1.97
2018-12-10T01:54:04.901Z,2.63
2018-12-10T01:56:32.283Z,1.67
2018-12-10T01:58:59.713Z,1.30
2018-12-10T02:01:27.114Z,1.80
2018-12-10T02:03:54.586Z,1.80
2018-12-10T02:06:22.045Z,1.90
2018-12-10T02:08:49.456Z,1.50
2018-12-10T02:11:16.841Z,1.73
2018-12-10T02:13:44.379Z,2.10
2018-12-10T02:16:11.808Z,1.87
2018-12-10T02:18:39.216Z,1.73
2018-12-10T02:21:06.629Z,2.57
2018-12-10T02:23:34.064Z,2.30
2018-12-10T02:26:01.489Z,1.73
2018-12-10T02:28:34.633Z,1.83
2018-12-10T02:31:02.147Z,1.80
2018-12-10T02:33:29.579Z,1.60
2018-12-10T02:35:57.020Z,1.70
2018-12-10T02:38:24.460Z,2.17
2018-12-10T02:40:51.892Z,1.93
2018-12-10T02:43:19.319Z,2.63
2018-12-10T02:45:46.760Z,1.87
2018-12-10T02:48:14.163Z,3.10
2018-12-10T02:50:41.646Z,2.10
2018-12-10T02:53:09.077Z,1.90
2018-12-10T02:55:36.517Z,1.80
2018-12-10T02:58:03.914Z,1.47
2018-12-10T03:00:31.315Z,1.60
2018-12-10T03:02:58.712Z,1.53
2018-12-10T03:05:26.094Z,1.57
2018-12-10T03:07:53.519Z,1.20
2018-12-10T03:10:20.994Z,1.50
2018-12-10T03:12:48.397Z,1.63
2018-12-10T03:15:15.809Z,1.17
2018-12-10T03:17:43.357Z,2.23
2018-12-10T03:20:10.748Z,1.27
2018-12-10T03:22:38.162Z,1.37
2018-12-10T03:25:05.727Z,1.50
2018-12-10T03:27:33.127Z,1.90
2018-12-10T03:30:00.556Z,1.60
2018-12-10T03:32:27.947Z,1.47
2018-12-10T03:34:55.344Z,1.57
2018-12-10T03:37:22.745Z,2.03
2018-12-10T03:39:50.199Z,1.80
2018-12-10T03:42:17.627Z,1.67
2018-12-10T03:44:45.238Z,2.03
2018-12-10T03:47:12.663Z,1.07
2018-12-10T03:49:40.061Z,1.53
2018-12-10T03:52:07.489Z,1.50
2018-12-10T03:54:34.902Z,1.83
2018-12-10T03:57:02.338Z,1.67
2018-12-10T03:59:29.773Z,1.73
2018-12-10T04:01:57.174Z,1.20
2018-12-10T04:04:24.552Z,2.30
2018-12-10T04:06:51.998Z,1.77
2018-12-10T04:09:19.375Z,1.87
2018-12-10T04:11:46.787Z,1.90
2018-12-10T04:14:14.199Z,1.67
2018-12-10T04:16:41.774Z,2.00
2018-12-10T04:19:09.179Z,2.30
2018-12-10T04:21:36.666Z,2.00
2018-12-10T04:24:04.109Z,1.67
2018-12-10T04:26:31.498Z,1.80
2018-12-10T04:28:58.985Z,2.40
2018-12-10T04:31:26.374Z,1.90
2018-12-10T04:33:53.980Z,1.80
2018-12-10T04:36:21.410Z,1.90
2018-12-10T04:38:48.805Z,2.10
2018-12-10T04:41:16.230Z,2.07
2018-12-10T04:43:43.697Z,2.30
2018-12-10T04:46:11.135Z,2.13
2018-12-10T04:48:38.526Z,1.80
2018-12-10T04:51:05.931Z,1.83
2018-12-10T04:53:33.336Z,2.47
2018-12-10T04:56:00.753Z,2.43
2018-12-10T04:58:28.171Z,1.67
2018-12-10T05:00:55.565Z,1.83
2018-12-10T05:03:23.032Z,2.13
2018-12-10T05:05:50.429Z,2.80
2018-12-10T05:08:17.848Z,2.40
2018-12-10T05:10:45.270Z,1.80
2018-12-10T05:13:12.735Z,2.13
2018-12-10T05:15:40.141Z,3.20
2018-12-10T05:18:07.545Z,1.63
2018-12-10T05:20:34.959Z,1.80
2018-12-10T05:23:02.357Z,1.50
2018-12-10T05:25:29.773Z,1.33
2018-12-10T05:27:57.167Z,1.73
2018-12-10T05:30:24.580Z,1.50
2018-12-10T05:32:52.011Z,1.80
2018-12-10T05:35:19.424Z,1.87
2018-12-10T05:37:46.819Z,2.40
2018-12-10T05:40:14.221Z,2.23
2018-12-10T05:42:41.650Z,2.47
2018-12-10T05:45:09.203Z,1.50
2018-12-10T05:47:36.621Z,2.33
2018-12-10T05:50:04.314Z,1.30
2018-12-10T05:52:31.811Z,1.67
2018-12-10T05:54:59.201Z,2.07
2018-12-10T05:57:26.660Z,2.50
2018-12-10T05:59:54.218Z,1.70
2018-12-10T06:02:21.673Z,3.20
2018-12-10T06:04:49.057Z,1.70
2018-12-10T06:07:16.473Z,1.40
2018-12-10T06:09:44.050Z,1.50
2018-12-10T06:12:11.446Z,1.80
2018-12-10T06:14:38.857Z,1.57
2018-12-10T06:17:06.289Z,1.80
2018-12-10T06:19:34.206Z,1.90
2018-12-10T06:22:01.621Z,2.27
2018-12-10T06:24:29.126Z,1.80
2018-12-10T06:26:56.569Z,2.40
2018-12-10T06:29:24.033Z,2.07
2018-12-10T06:31:51.458Z,3.27
2018-12-10T06:34:18.879Z,2.87
2018-12-10T06:36:47.245Z,2.10
2018-12-10T06:39:14.760Z,3.27
2018-12-10T06:41:42.153Z,1.97
2018-12-10T06:44:09.581Z,2.17
2018-12-10T06:46:36.970Z,2.27
2018-12-10T06:49:04.430Z,2.20
2018-12-10T06:51:31.837Z,2.50
2018-12-10T06:53:59.262Z,3.17
2018-12-10T06:56:26.692Z,2.20
2018-12-10T06:58:54.986Z,3.10
2018-12-10T07:01:22.468Z,2.43
2018-12-10T07:03:53.153Z,2.00
2018-12-10T07:06:20.599Z,2.63
2018-12-10T07:08:48.030Z,2.33
2018-12-10T07:11:15.644Z,2.17
2018-12-10T07:13:44.680Z,2.27
2018-12-10T07:16:12.092Z,2.10
2018-12-10T07:18:39.497Z,2.40
2018-12-10T07:21:06.947Z,2.33
2018-12-10T07:23:34.375Z,2.40
2018-12-10T07:26:01.821Z,2.00
2018-12-10T07:28:29.201Z,2.40
2018-12-10T07:30:56.600Z,2.00
2018-12-10T07:33:24.060Z,2.27
2018-12-10T07:35:51.496Z,1.90
2018-12-10T07:38:18.908Z,2.10
2018-12-10T07:40:46.343Z,1.77
2018-12-10T07:43:13.759Z,1.93
2018-12-10T07:45:41.174Z,1.60
2018-12-10T07:48:08.600Z,2.70
2018-12-10T07:50:35.988Z,2.60
2018-12-10T07:53:03.516Z,2.30
2018-12-10T07:55:30.965Z,1.77
2018-12-10T07:57:58.372Z,1.77
2018-12-10T08:00:25.914Z,1.67
2018-12-10T08:02:53.347Z,2.57
2018-12-10T08:05:20.870Z,1.60
2018-12-10T08:07:48.914Z,1.90
2018-12-10T08:10:16.355Z,2.03
2018-12-10T08:12:43.849Z,1.70
2018-12-10T08:15:11.294Z,2.77
2018-12-10T08:17:38.707Z,2.43
2018-12-10T08:20:06.236Z,2.50
2018-12-10T08:22:33.672Z,2.27
2018-12-10T08:25:01.083Z,2.80
2018-12-10T08:27:28.542Z,2.67
2018-12-10T08:29:55.958Z,2.47
2018-12-10T08:32:23.361Z,1.67
2018-12-10T08:34:50.772Z,2.30
2018-12-10T08:37:18.205Z,2.20
2018-12-10T08:39:45.624Z,2.47
2018-12-10T08:42:13.074Z,2.20
2018-12-10T08:44:40.486Z,2.40
2018-12-10T08:47:15.900Z,2.97
2018-12-10T08:49:37.288Z,2.40
2018-12-10T08:52:04.714Z,2.60
2018-12-10T08:54:32.105Z,2.83
2018-12-10T08:56:59.489Z,2.73
2018-12-10T08:59:26.986Z,2.90
2018-12-10T09:01:54.399Z,2.57
2018-12-10T09:04:21.810Z,2.73
2018-12-10T09:06:49.356Z,3.13
2018-12-10T09:09:16.807Z,3.17
2018-12-10T09:11:44.400Z,2.40
2018-12-10T09:14:11.817Z,3.30
2018-12-10T09:16:39.200Z,2.90
2018-12-10T09:19:06.598Z,2.60
2018-12-10T09:21:33.975Z,1.93
2018-12-10T09:24:01.397Z,2.40
2018-12-10T09:26:28.821Z,2.10
2018-12-10T09:28:56.275Z,2.03
2018-12-10T09:31:23.725Z,1.60
2018-12-10T09:33:51.290Z,1.67
2018-12-10T09:36:18.699Z,1.70
2018-12-10T09:38:46.101Z,1.53
2018-12-10T09:41:13.508Z,2.10
2018-12-10T09:43:40.909Z,1.80
2018-12-10T09:46:08.344Z,1.80
2018-12-10T09:48:35.774Z,1.50
2018-12-10T09:51:03.167Z,1.80
2018-12-10T09:53:30.544Z,1.50
2018-12-10T09:55:57.964Z,2.03
2018-12-10T09:58:25.344Z,1.30
2018-12-10T10:00:52.766Z,1.83
2018-12-10T10:03:20.158Z,1.63
2018-12-10T10:05:47.574Z,1.53
2018-12-10T10:08:14.974Z,1.40
2018-12-10T10:10:42.391Z,1.93
2018-12-10T10:13:09.790Z,1.50
2018-12-10T10:15:37.880Z,1.70
2018-12-10T10:18:05.283Z,1.13
2018-12-10T10:20:32.714Z,1.20
2018-12-10T10:23:00.185Z,1.47
2018-12-10T10:25:27.605Z,1.70
2018-12-10T10:27:55.019Z,1.57
2018-12-10T10:30:22.476Z,1.57
2018-12-10T10:32:49.841Z,1.67
2018-12-10T10:35:17.262Z,1.53
2018-12-10T10:37:44.774Z,1.80
2018-12-10T10:40:12.201Z,1.33
2018-12-10T10:42:39.612Z,1.80
2018-12-10T10:45:07.176Z,2.10
2018-12-10T10:47:34.591Z,1.67
2018-12-10T10:50:02.023Z,1.30
2018-12-10T10:52:33.311Z,1.20
2018-12-10T10:54:58.854Z,1.37
2018-12-10T10:57:26.343Z,2.00
2018-12-10T10:59:53.737Z,1.40
2018-12-10T11:02:26.912Z,1.67
2018-12-10T11:04:54.339Z,1.47
2018-12-10T11:07:21.742Z,1.60
2018-12-10T11:09:49.194Z,1.40
2018-12-10T11:12:16.591Z,3.03
2018-12-10T11:14:44.114Z,3.00
2018-12-10T11:17:11.522Z,1.43
2018-12-10T11:19:39.611Z,1.83
2018-12-10T11:22:07.010Z,1.90
2018-12-10T11:24:34.424Z,1.10
2018-12-10T11:27:01.828Z,1.13
2018-12-10T11:29:29.244Z,1.70
2018-12-10T11:31:56.778Z,1.57
2018-12-10T11:34:24.200Z,1.73
2018-12-10T11:36:51.582Z,2.07
2018-12-10T11:39:19.054Z,1.63
2018-12-10T11:41:46.780Z,1.53
2018-12-10T11:44:14.239Z,1.20
2018-12-10T11:46:41.630Z,1.53
2018-12-10T11:49:09.042Z,1.43
2018-12-10T11:51:36.451Z,1.30
2018-12-10T11:54:03.923Z,1.40
2018-12-10T11:56:31.465Z,1.20
2018-12-10T11:58:58.850Z,1.67
2018-12-10T12:01:26.256Z,1.40
2018-12-10T12:03:53.684Z,1.20
2018-12-10T12:06:21.088Z,2.03
2018-12-10T12:08:48.537Z,1.50
2018-12-10T12:11:16.004Z,1.87
2018-12-10T12:13:44.520Z,1.33
2018-12-10T12:16:12.109Z,1.57
2018-12-10T12:18:39.530Z,1.50
2018-12-10T12:21:06.958Z,1.40
2018-12-10T12:23:34.378Z,1.30
2018-12-10T12:26:01.781Z,1.87
2018-12-10T12:28:29.180Z,1.10
2018-12-10T12:30:56.602Z,1.63
2018-12-10T12:33:23.983Z,1.50
2018-12-10T12:35:51.353Z,1.63
2018-12-10T12:38:18.790Z,1.23
2018-12-10T12:40:46.213Z,1.30
2018-12-10T12:43:16.077Z,1.40
2018-12-10T12:45:43.890Z,1.17
2018-12-10T12:48:11.483Z,0.87
2018-12-10T12:50:38.940Z,1.60
2018-12-10T12:53:06.444Z,1.10
2018-12-10T12:55:33.882Z,2.17
2018-12-10T12:58:01.359Z,2.40
2018-12-10T13:00:28.765Z,1.47
2018-12-10T13:02:56.173Z,1.47
2018-12-10T13:05:23.712Z,1.63
2018-12-10T13:07:51.168Z,2.30
2018-12-10T13:10:18.621Z,1.80
2018-12-10T13:12:46.039Z,1.40
2018-12-10T13:15:13.425Z,1.97
2018-12-10T13:17:40.827Z,1.60
2018-12-10T13:20:08.356Z,1.73
2018-12-10T13:22:35.798Z,1.40
2018-12-10T13:25:03.320Z,1.40
2018-12-10T13:27:30.770Z,1.67
2018-12-10T13:29:58.170Z,1.60
2018-12-10T13:32:25.643Z,1.37
2018-12-10T13:34:53.086Z,1.97
2018-12-10T13:37:20.501Z,1.30
2018-12-10T13:39:47.948Z,1.70
2018-12-10T13:42:15.564Z,1.53
2018-12-10T13:44:43.057Z,1.60
2018-12-10T13:47:10.450Z,1.27
2018-12-10T13:49:38.788Z,1.80
2018-12-10T13:52:09.140Z,1.70
2018-12-10T13:54:35.908Z,1.20
2018-12-10T13:57:03.383Z,1.33
2018-12-10T13:59:30.836Z,1.27
2018-12-10T14:01:58.293Z,1.97
2018-12-10T14:04:30.435Z,1.47
2018-12-10T14:06:57.911Z,1.40
2018-12-10T14:09:25.344Z,1.53
2018-12-10T14:11:52.762Z,1.63
2018-12-10T14:14:20.190Z,1.47
2018-12-10T14:16:47.583Z,0.90
2018-12-10T14:19:15.066Z,1.10
2018-12-10T14:21:42.479Z,1.03
2018-12-10T14:24:09.910Z,1.47
2018-12-10T14:26:37.464Z,1.37
2018-12-10T14:29:04.885Z,0.90
2018-12-10T14:31:32.297Z,0.80
2018-12-10T14:34:05.366Z,1.00
2018-12-10T14:36:32.799Z,0.80
2018-12-10T14:39:00.236Z,1.07
2018-12-10T14:41:27.612Z,1.40
2018-12-10T14:43:55.054Z,1.77
2018-12-10T14:46:22.551Z,1.10
2018-12-10T14:48:50.049Z,0.70
2018-12-10T14:51:17.579Z,1.60
2018-12-10T14:53:45.054Z,1.50
2018-12-10T14:56:12.493Z,1.30
2018-12-10T14:58:39.953Z,1.27
2018-12-10T15:01:07.449Z,0.90
2018-12-10T15:03:34.874Z,0.63
2018-12-10T15:06:02.302Z,0.80
2018-12-10T15:08:29.724Z,0.70
2018-12-10T15:10:57.147Z,0.87
2018-12-10T15:13:24.582Z,0.70
2018-12-10T15:15:51.990Z,1.13
2018-12-10T15:18:19.438Z,0.90
2018-12-10T15:20:46.866Z,1.30
2018-12-10T15:23:14.324Z,1.50
2018-12-10T15:25:41.805Z,1.53
2018-12-10T15:28:09.206Z,1.20
2018-12-10T15:30:36.677Z,1.23
2018-12-10T15:33:04.133Z,1.47
2018-12-10T15:35:31.571Z,1.07
2018-12-10T15:37:59.037Z,1.80
2018-12-10T15:40:26.452Z,1.00
2018-12-10T15:42:53.871Z,1.00
2018-12-10T15:45:21.395Z,1.20
2018-12-10T15:47:48.845Z,1.20
2018-12-10T15:50:16.261Z,0.90
2018-12-10T15:52:43.837Z,1.40
2018-12-10T15:55:11.288Z,1.30
2018-12-10T15:57:38.749Z,2.00
2018-12-10T16:00:06.762Z,0.60
2018-12-10T16:02:34.327Z,1.20
2018-12-10T16:05:01.886Z,1.00
2018-12-10T16:07:29.379Z,0.70
2018-12-10T16:09:56.913Z,0.90
2018-12-10T16:12:24.388Z,1.10
2018-12-10T16:14:51.799Z,0.90
2018-12-10T16:17:20.003Z,1.73
2018-12-10T16:19:47.434Z,1.00
2018-12-10T16:22:14.899Z,1.40
2018-12-10T16:24:42.344Z,1.77
2018-12-10T16:27:10.012Z,0.97
2018-12-10T16:29:38.050Z,1.63
2018-12-10T16:32:05.591Z,0.87
2018-12-10T16:34:32.978Z,1.20
2018-12-10T16:37:00.485Z,1.00
2018-12-10T16:39:27.921Z,0.70
2018-12-10T16:41:55.338Z,1.30
2018-12-10T16:44:22.771Z,1.37
2018-12-10T16:46:50.258Z,1.10
2018-12-10T16:49:17.762Z,1.10
2018-12-10T16:51:45.163Z,1.40
2018-12-10T16:54:12.602Z,0.83
2018-12-10T16:56:40.017Z,1.07
2018-12-10T16:59:07.470Z,0.93
2018-12-10T17:01:34.960Z,1.00
2018-12-10T17:04:02.389Z,0.70
2018-12-10T17:06:29.799Z,0.87
2018-12-10T17:08:57.238Z,0.70
2018-12-10T17:11:24.780Z,0.97
2018-12-10T17:13:53.084Z,0.93
2018-12-10T17:16:20.533Z,0.90
2018-12-10T17:18:47.938Z,0.87
2018-12-10T17:21:15.339Z,1.60
2018-12-10T17:23:42.838Z,1.47
2018-12-10T17:26:10.433Z,1.50
2018-12-10T17:28:37.830Z,2.20
2018-12-10T17:31:05.253Z,2.40
2018-12-10T17:33:32.647Z,1.87
2018-12-10T17:36:00.159Z,1.53
2018-12-10T17:38:27.595Z,1.20
2018-12-10T17:40:54.999Z,1.50
2018-12-10T17:43:22.682Z,1.23
2018-12-10T17:45:50.155Z,1.57
2018-12-10T17:48:18.687Z,1.40
2018-12-10T17:50:46.105Z,1.40
2018-12-10T17:53:13.593Z,1.13
2018-12-10T17:55:41.022Z,1.30
2018-12-10T17:58:08.449Z,1.57
2018-12-10T18:00:36.029Z,1.73
2018-12-10T18:03:03.456Z,1.40
2018-12-10T18:05:30.887Z,1.30
2018-12-10T18:07:58.418Z,1.63
2018-12-10T18:10:25.818Z,1.50
2018-12-10T18:12:53.281Z,1.50
2018-12-10T18:15:20.763Z,1.00
2018-12-10T18:17:48.259Z,1.20
2018-12-10T18:20:15.677Z,1.00
2018-12-10T18:22:43.157Z,1.20
2018-12-10T18:25:10.697Z,1.13
2018-12-10T18:27:38.099Z,1.43
2018-12-10T18:30:06.619Z,1.10
2018-12-10T18:32:34.030Z,1.00
2018-12-10T18:35:01.490Z,1.63
2018-12-10T18:37:28.988Z,2.03
2018-12-10T18:39:56.601Z,1.33
2018-12-10T18:42:24.107Z,1.90
2018-12-10T18:44:51.538Z,1.50
2018-12-10T18:47:18.934Z,1.87
2018-12-10T18:49:46.381Z,1.03
2018-12-10T18:52:14.385Z,1.07
2018-12-10T18:54:41.834Z,1.50
2018-12-10T18:57:09.264Z,1.30
2018-12-10T18:59:36.854Z,1.30
2018-12-10T19:02:04.302Z,1.60
2018-12-10T19:04:31.735Z,1.20
2018-12-10T19:06:59.188Z,1.30
2018-12-10T19:09:26.647Z,1.40
2018-12-10T19:11:54.135Z,1.10
2018-12-10T19:14:21.543Z,1.17
2018-12-10T19:16:48.994Z,1.30
2018-12-10T19:19:17.595Z,1.70
2018-12-10T19:21:45.268Z,2.00
2018-12-10T19:24:12.707Z,1.60
2018-12-10T19:26:40.119Z,1.20
2018-12-10T19:29:08.840Z,1.60
2018-12-10T19:31:36.509Z,1.63
2018-12-10T19:34:03.964Z,1.40
2018-12-10T19:36:31.416Z,1.27
2018-12-10T19:38:58.904Z,1.30
2018-12-10T19:41:26.311Z,1.53
2018-12-10T19:43:53.787Z,1.80
2018-12-10T19:46:21.220Z,1.60
2018-12-10T19:48:48.626Z,1.60
2018-12-10T19:51:16.072Z,1.30
2018-12-10T19:53:43.541Z,1.63
2018-12-10T19:56:10.972Z,1.70
2018-12-10T19:58:38.386Z,1.80
2018-12-10T20:01:05.801Z,2.67
2018-12-10T20:03:33.200Z,1.70
2018-12-10T20:06:06.150Z,3.83
2018-12-10T20:08:33.536Z,2.63
2018-12-10T20:11:00.963Z,1.43
2018-12-10T20:13:28.428Z,2.27
2018-12-10T20:15:55.841Z,3.00
2018-12-10T20:18:23.237Z,2.03
2018-12-10T20:20:50.703Z,2.13
2018-12-10T20:23:18.159Z,1.73
2018-12-10T20:25:45.649Z,2.20
2018-12-10T20:28:13.143Z,4.70
2018-12-10T20:30:40.570Z,1.60
2018-12-10T20:33:08.048Z,0.97
2018-12-10T20:35:35.519Z,1.20
2018-12-10T20:38:03.036Z,1.70
2018-12-10T20:40:30.470Z,1.80
2018-12-10T20:42:57.994Z,1.70
2018-12-10T20:45:25.462Z,1.90
2018-12-10T20:47:52.891Z,2.10
2018-12-10T20:50:20.321Z,2.07
2018-12-10T20:52:47.763Z,2.03
2018-12-10T20:55:15.186Z,2.47
2018-12-10T20:57:42.618Z,2.10
2018-12-10T21:00:10.194Z,1.97
2018-12-10T21:02:37.643Z,2.90
2018-12-10T21:05:05.230Z,1.83
2018-12-10T21:07:32.623Z,1.70
2018-12-10T21:10:00.042Z,1.80
2018-12-10T21:12:27.462Z,1.80
2018-12-10T21:15:01.472Z,2.03
2018-12-10T21:17:29.004Z,1.73
2018-12-10T21:19:56.482Z,1.90
2018-12-10T21:22:24.568Z,2.43
2018-12-10T21:24:52.618Z,1.70
2018-12-10T21:27:20.156Z,1.83
2018-12-10T21:29:47.635Z,2.47
2018-12-10T21:32:15.088Z,1.77
2018-12-10T21:34:43.464Z,1.80
2018-12-10T21:37:10.953Z,1.93
2018-12-10T21:39:38.365Z,2.47
2018-12-10T21:42:05.812Z,2.10
2018-12-10T21:44:34.349Z,3.13
2018-12-10T21:47:02.135Z,2.30
2018-12-10T21:49:29.594Z,2.03
2018-12-10T21:51:57.107Z,2.27
2018-12-10T21:54:24.596Z,2.13
2018-12-10T21:56:52.280Z,1.70
2018-12-10T21:59:19.728Z,2.53
2018-12-10T22:01:47.122Z,2.10
2018-12-10T22:04:14.624Z,2.47
2018-12-10T22:06:42.442Z,2.70
2018-12-10T22:09:09.858Z,2.50
2018-12-10T22:11:37.304Z,2.23
2018-12-10T22:14:04.765Z,3.50
2018-12-10T22:16:32.167Z,2.30
2018-12-10T22:19:00.853Z,3.20
2018-12-10T22:21:28.378Z,2.43
2018-12-10T22:23:55.839Z,1.97
2018-12-10T22:26:23.775Z,2.40
2018-12-10T22:28:51.296Z,2.17
2018-12-10T22:31:18.750Z,2.60
2018-12-10T22:33:46.513Z,2.80
2018-12-10T22:36:14.269Z,2.33
2018-12-10T22:38:41.701Z,2.57
2018-12-10T22:41:09.244Z,2.87
2018-12-10T22:43:36.835Z,2.23
2018-12-10T22:46:04.470Z,2.37
2018-12-10T22:48:32.015Z,2.20
2018-12-10T22:50:59.453Z,2.20
2018-12-10T22:53:27.019Z,2.50
2018-12-10T22:55:54.546Z,2.47
2018-12-10T22:58:22.013Z,2.20
2018-12-10T23:00:51.233Z,2.50
2018-12-10T23:03:18.674Z,2.23
2018-12-10T23:05:46.058Z,2.27
2018-12-10T23:08:13.488Z,2.13
2018-12-10T23:10:40.899Z,2.00
2018-12-10T23:13:08.412Z,2.00
2018-12-10T23:15:35.820Z,3.23
2018-12-10T23:18:03.231Z,2.37
2018-12-10T23:20:30.647Z,1.73
2018-12-10T23:22:58.085Z,2.23
2018-12-10T23:25:25.462Z,2.23
2018-12-10T23:27:52.899Z,2.30
2018-12-10T23:30:20.295Z,1.90
2018-12-10T23:32:47.699Z,2.17
2018-12-10T23:35:15.111Z,2.57
2018-12-10T23:37:42.545Z,2.80
2018-12-10T23:40:09.928Z,2.53
2018-12-10T23:42:39.358Z,2.73
2018-12-10T23:45:06.891Z,2.20
2018-12-10T23:47:34.320Z,3.00
2018-12-10T23:50:01.882Z,1.97
2018-12-10T23:52:29.313Z,2.43
2018-12-10T23:54:56.693Z,2.20
2018-12-10T23:57:24.078Z,3.07
2018-12-10T23:59:51.529Z,2.60
